sensor_id;sensor_type;location;lat;lon;timestamp;temperature;humidity
36654;DHT22;22650;49.350;20.898;2022-12-29T00:00:07;2.00;99.90
36654;DHT22;22650;49.350;20.898;2022-12-29T00:02:46;1.90;99.90
36654;DHT22;22650;49.350;20.898;2022-12-29T00:05:20;1.90;99.90
36654;DHT22;22650;49.350;20.898;2022-12-29T00:07:53;2.00;99.90
36654;DHT22;22650;49.350;20.898;2022-12-29T00:10:27;2.00;99.90
36654;DHT22;22650;49.350;20.898;2022-12-29T00:13:01;2.00;99.90
36654;DHT22;22650;49.350;20.898;2022-12-29T00:15:55;2.00;99.90
36654;DHT22;22650;49.350;20.898;2022-12-29T00:18:29;2.10;99.90
36654;DHT22;22650;49.350;20.898;2022-12-29T00:21:02;2.10;99.90
36654;DHT22;22650;49.350;20.898;2022-12-29T00:23:53;2.10;99.90
36654;DHT22;22650;49.350;20.898;2022-12-29T00:26:44;2.10;99.90
36654;DHT22;22650;49.350;20.898;2022-12-29T00:29:35;2.10;99.90
36654;DHT22;22650;49.350;20.898;2022-12-29T00:32:28;2.10;99.90
36654;DHT22;22650;49.350;20.898;2022-12-29T00:35:23;2.10;99.90
36654;DHT22;22650;49.350;20.898;2022-12-29T00:38:01;2.10;99.90
36654;DHT22;22650;49.350;20.898;2022-12-29T00:40:53;2.10;99.90
36654;DHT22;22650;49.350;20.898;2022-12-29T00:43:45;2.20;99.90
36654;DHT22;22650;49.350;20.898;2022-12-29T00:46:36;2.20;99.90
36654;DHT22;22650;49.350;20.898;2022-12-29T00:49:13;2.20;99.90
36654;DHT22;22650;49.350;20.898;2022-12-29T00:52:07;2.20;99.90
36654;DHT22;22650;49.350;20.898;2022-12-29T00:54:41;2.20;99.90
36654;DHT22;22650;49.350;20.898;2022-12-29T00:57:17;2.20;99.90
36654;DHT22;22650;49.350;20.898;2022-12-29T00:59:50;2.20;99.90
36654;DHT22;22650;49.350;20.898;2022-12-29T01:02:24;2.30;99.90
36654;DHT22;22650;49.350;20.898;2022-12-29T01:04:59;2.20;99.90
36654;DHT22;22650;49.350;20.898;2022-12-29T01:07:32;2.20;99.90
36654;DHT22;22650;49.350;20.898;2022-12-29T01:10:07;2.20;99.90
36654;DHT22;22650;49.350;20.898;2022-12-29T01:12:42;2.30;99.90
36654;DHT22;22650;49.350;20.898;2022-12-29T01:15:17;2.30;99.90
36654;DHT22;22650;49.350;20.898;2022-12-29T01:17:52;2.30;99.90
36654;DHT22;22650;49.350;20.898;2022-12-29T01:20:27;2.30;99.90
36654;DHT22;22650;49.350;20.898;2022-12-29T01:23:01;2.30;99.90
36654;DHT22;22650;49.350;20.898;2022-12-29T01:25:35;2.30;99.90
36654;DHT22;22650;49.350;20.898;2022-12-29T01:28:08;2.30;99.90
36654;DHT22;22650;49.350;20.898;2022-12-29T01:30:42;2.30;99.90
36654;DHT22;22650;49.350;20.898;2022-12-29T01:33:17;2.30;99.90
36654;DHT22;22650;49.350;20.898;2022-12-29T01:35:52;2.30;99.90
36654;DHT22;22650;49.350;20.898;2022-12-29T01:38:26;2.30;99.90
36654;DHT22;22650;49.350;20.898;2022-12-29T01:41:00;2.30;99.90
36654;DHT22;22650;49.350;20.898;2022-12-29T01:43:41;2.20;99.90
36654;DHT22;22650;49.350;20.898;2022-12-29T01:46:20;2.20;99.90
36654;DHT22;22650;49.350;20.898;2022-12-29T01:49:01;2.30;99.90
36654;DHT22;22650;49.350;20.898;2022-12-29T01:51:40;2.30;99.90
36654;DHT22;22650;49.350;20.898;2022-12-29T01:54:20;2.30;99.90
36654;DHT22;22650;49.350;20.898;2022-12-29T01:56:57;2.30;99.90
36654;DHT22;22650;49.350;20.898;2022-12-29T01:59:34;2.40;99.90
36654;DHT22;22650;49.350;20.898;2022-12-29T02:02:11;2.40;99.90
36654;DHT22;22650;49.350;20.898;2022-12-29T02:04:45;2.40;99.90
36654;DHT22;22650;49.350;20.898;2022-12-29T02:07:25;2.40;99.90
36654;DHT22;22650;49.350;20.898;2022-12-29T02:10:00;2.50;99.90
36654;DHT22;22650;49.350;20.898;2022-12-29T02:12:35;2.40;99.90
36654;DHT22;22650;49.350;20.898;2022-12-29T02:15:09;2.40;99.90
36654;DHT22;22650;49.350;20.898;2022-12-29T02:17:57;2.40;99.90
36654;DHT22;22650;49.350;20.898;2022-12-29T02:24:02;2.50;99.90
36654;DHT22;22650;49.350;20.898;2022-12-29T02:27:01;2.50;99.90
36654;DHT22;22650;49.350;20.898;2022-12-29T02:29:57;2.60;99.90
36654;DHT22;22650;49.350;20.898;2022-12-29T02:32:45;2.60;99.90
36654;DHT22;22650;49.350;20.898;2022-12-29T02:35:29;2.60;99.90
36654;DHT22;22650;49.350;20.898;2022-12-29T02:38:12;2.70;99.90
36654;DHT22;22650;49.350;20.898;2022-12-29T02:40:53;2.70;99.90
36654;DHT22;22650;49.350;20.898;2022-12-29T02:43:34;2.70;99.90
36654;DHT22;22650;49.350;20.898;2022-12-29T02:46:12;2.70;99.90
36654;DHT22;22650;49.350;20.898;2022-12-29T02:48:55;2.70;99.90
36654;DHT22;22650;49.350;20.898;2022-12-29T02:51:37;2.70;99.90
36654;DHT22;22650;49.350;20.898;2022-12-29T02:54:12;2.70;99.90
36654;DHT22;22650;49.350;20.898;2022-12-29T02:57:04;2.70;99.90
36654;DHT22;22650;49.350;20.898;2022-12-29T02:59:39;2.70;99.90
36654;DHT22;22650;49.350;20.898;2022-12-29T03:02:32;2.70;99.90
36654;DHT22;22650;49.350;20.898;2022-12-29T03:05:22;2.70;99.90
36654;DHT22;22650;49.350;20.898;2022-12-29T03:08:05;2.70;99.90
36654;DHT22;22650;49.350;20.898;2022-12-29T03:10:47;2.70;99.90
36654;DHT22;22650;49.350;20.898;2022-12-29T03:13:26;2.60;99.90
36654;DHT22;22650;49.350;20.898;2022-12-29T03:16:22;2.60;99.90
36654;DHT22;22650;49.350;20.898;2022-12-29T03:19:02;2.60;99.90
36654;DHT22;22650;49.350;20.898;2022-12-29T03:21:42;2.60;99.90
36654;DHT22;22650;49.350;20.898;2022-12-29T03:24:43;2.50;99.90
36654;DHT22;22650;49.350;20.898;2022-12-29T03:27:21;2.40;99.90
36654;DHT22;22650;49.350;20.898;2022-12-29T03:30:01;2.40;99.90
36654;DHT22;22650;49.350;20.898;2022-12-29T03:32:38;2.40;99.90
36654;DHT22;22650;49.350;20.898;2022-12-29T03:35:15;2.40;99.90
36654;DHT22;22650;49.350;20.898;2022-12-29T03:37:58;2.40;99.90
36654;DHT22;22650;49.350;20.898;2022-12-29T03:40:33;2.40;99.90
36654;DHT22;22650;49.350;20.898;2022-12-29T03:43:07;2.40;99.90
36654;DHT22;22650;49.350;20.898;2022-12-29T03:45:41;2.40;99.90
36654;DHT22;22650;49.350;20.898;2022-12-29T03:48:15;2.30;99.90
36654;DHT22;22650;49.350;20.898;2022-12-29T03:50:50;2.30;99.90
36654;DHT22;22650;49.350;20.898;2022-12-29T03:53:25;2.30;99.90
36654;DHT22;22650;49.350;20.898;2022-12-29T03:55:59;2.20;99.90
36654;DHT22;22650;49.350;20.898;2022-12-29T03:58:33;2.20;99.90
36654;DHT22;22650;49.350;20.898;2022-12-29T04:01:16;2.20;99.90
36654;DHT22;22650;49.350;20.898;2022-12-29T04:03:50;2.20;99.90
36654;DHT22;22650;49.350;20.898;2022-12-29T04:06:24;2.10;99.90
36654;DHT22;22650;49.350;20.898;2022-12-29T04:09:06;2.10;99.90
36654;DHT22;22650;49.350;20.898;2022-12-29T04:11:44;2.10;99.90
36654;DHT22;22650;49.350;20.898;2022-12-29T04:14:18;2.00;99.90
36654;DHT22;22650;49.350;20.898;2022-12-29T04:16:52;2.10;99.90
36654;DHT22;22650;49.350;20.898;2022-12-29T04:19:26;2.10;99.90
36654;DHT22;22650;49.350;20.898;2022-12-29T04:21:59;2.10;99.90
36654;DHT22;22650;49.350;20.898;2022-12-29T04:24:35;2.20;99.90
36654;DHT22;22650;49.350;20.898;2022-12-29T04:27:09;2.30;99.90
36654;DHT22;22650;49.350;20.898;2022-12-29T04:29:57;2.40;99.90
36654;DHT22;22650;49.350;20.898;2022-12-29T04:32:50;2.50;99.90
36654;DHT22;22650;49.350;20.898;2022-12-29T04:35:24;2.60;99.90
36654;DHT22;22650;49.350;20.898;2022-12-29T04:37:58;2.70;99.90
36654;DHT22;22650;49.350;20.898;2022-12-29T04:40:33;2.70;99.90
36654;DHT22;22650;49.350;20.898;2022-12-29T04:43:07;2.80;99.90
36654;DHT22;22650;49.350;20.898;2022-12-29T04:45:59;2.90;99.90
36654;DHT22;22650;49.350;20.898;2022-12-29T04:48:39;2.90;99.90
36654;DHT22;22650;49.350;20.898;2022-12-29T04:51:36;3.00;99.90
36654;DHT22;22650;49.350;20.898;2022-12-29T04:54:12;3.10;99.90
36654;DHT22;22650;49.350;20.898;2022-12-29T04:56:50;3.10;99.90
36654;DHT22;22650;49.350;20.898;2022-12-29T04:59:24;3.20;99.90
36654;DHT22;22650;49.350;20.898;2022-12-29T05:02:01;3.20;99.90
36654;DHT22;22650;49.350;20.898;2022-12-29T05:04:35;3.30;99.90
36654;DHT22;22650;49.350;20.898;2022-12-29T05:07:09;3.30;99.90
36654;DHT22;22650;49.350;20.898;2022-12-29T05:09:42;3.30;99.90
36654;DHT22;22650;49.350;20.898;2022-12-29T05:12:17;3.30;99.90
36654;DHT22;22650;49.350;20.898;2022-12-29T05:14:59;3.30;99.90
36654;DHT22;22650;49.350;20.898;2022-12-29T05:17:35;3.30;99.90
36654;DHT22;22650;49.350;20.898;2022-12-29T05:20:10;3.30;99.90
36654;DHT22;22650;49.350;20.898;2022-12-29T05:22:44;3.40;99.90
36654;DHT22;22650;49.350;20.898;2022-12-29T05:25:19;3.40;99.90
36654;DHT22;22650;49.350;20.898;2022-12-29T05:28:01;3.40;99.90
36654;DHT22;22650;49.350;20.898;2022-12-29T05:30:56;3.40;99.90
36654;DHT22;22650;49.350;20.898;2022-12-29T05:33:30;3.50;99.90
36654;DHT22;22650;49.350;20.898;2022-12-29T05:36:05;3.50;99.90
36654;DHT22;22650;49.350;20.898;2022-12-29T05:38:40;3.50;99.90
36654;DHT22;22650;49.350;20.898;2022-12-29T05:41:14;3.50;99.90
36654;DHT22;22650;49.350;20.898;2022-12-29T05:43:56;3.50;99.90
36654;DHT22;22650;49.350;20.898;2022-12-29T05:46:33;3.50;99.90
36654;DHT22;22650;49.350;20.898;2022-12-29T05:49:15;3.50;99.90
36654;DHT22;22650;49.350;20.898;2022-12-29T05:52:12;3.50;99.90
36654;DHT22;22650;49.350;20.898;2022-12-29T05:54:46;3.50;99.90
36654;DHT22;22650;49.350;20.898;2022-12-29T05:57:23;3.50;99.90
36654;DHT22;22650;49.350;20.898;2022-12-29T06:00:09;3.50;99.90
36654;DHT22;22650;49.350;20.898;2022-12-29T06:02:46;3.50;99.90
36654;DHT22;22650;49.350;20.898;2022-12-29T06:05:21;3.50;99.90
36654;DHT22;22650;49.350;20.898;2022-12-29T06:07:54;3.50;99.90
36654;DHT22;22650;49.350;20.898;2022-12-29T06:10:29;3.50;99.90
36654;DHT22;22650;49.350;20.898;2022-12-29T06:13:07;3.50;99.90
36654;DHT22;22650;49.350;20.898;2022-12-29T06:15:48;3.40;99.90
36654;DHT22;22650;49.350;20.898;2022-12-29T06:18:22;3.50;99.90
36654;DHT22;22650;49.350;20.898;2022-12-29T06:20:59;3.50;99.90
36654;DHT22;22650;49.350;20.898;2022-12-29T06:23:33;3.50;99.90
36654;DHT22;22650;49.350;20.898;2022-12-29T06:26:08;3.40;99.90
36654;DHT22;22650;49.350;20.898;2022-12-29T06:28:42;3.40;99.90
36654;DHT22;22650;49.350;20.898;2022-12-29T06:31:17;3.40;99.90
36654;DHT22;22650;49.350;20.898;2022-12-29T06:33:52;3.40;99.90
36654;DHT22;22650;49.350;20.898;2022-12-29T06:36:26;3.40;99.90
36654;DHT22;22650;49.350;20.898;2022-12-29T06:38:59;3.40;99.90
36654;DHT22;22650;49.350;20.898;2022-12-29T06:41:33;3.40;99.90
36654;DHT22;22650;49.350;20.898;2022-12-29T06:44:34;3.40;99.90
36654;DHT22;22650;49.350;20.898;2022-12-29T06:47:13;3.50;99.90
36654;DHT22;22650;49.350;20.898;2022-12-29T06:49:46;3.50;99.90
36654;DHT22;22650;49.350;20.898;2022-12-29T06:52:20;3.50;99.90
36654;DHT22;22650;49.350;20.898;2022-12-29T06:54:55;3.50;99.90
36654;DHT22;22650;49.350;20.898;2022-12-29T06:57:29;3.50;99.90
36654;DHT22;22650;49.350;20.898;2022-12-29T07:00:03;3.50;99.90
36654;DHT22;22650;49.350;20.898;2022-12-29T07:02:38;3.50;99.90
36654;DHT22;22650;49.350;20.898;2022-12-29T07:05:12;3.50;99.90
36654;DHT22;22650;49.350;20.898;2022-12-29T07:07:46;3.50;99.90
36654;DHT22;22650;49.350;20.898;2022-12-29T07:10:19;3.40;99.90
36654;DHT22;22650;49.350;20.898;2022-12-29T07:12:53;3.30;99.90
36654;DHT22;22650;49.350;20.898;2022-12-29T07:15:27;3.10;99.90
36654;DHT22;22650;49.350;20.898;2022-12-29T07:18:02;3.00;99.90
36654;DHT22;22650;49.350;20.898;2022-12-29T07:20:35;3.00;99.90
36654;DHT22;22650;49.350;20.898;2022-12-29T07:23:09;2.90;99.90
36654;DHT22;22650;49.350;20.898;2022-12-29T07:25:43;3.00;99.90
36654;DHT22;22650;49.350;20.898;2022-12-29T07:28:16;3.00;99.90
36654;DHT22;22650;49.350;20.898;2022-12-29T07:30:49;3.10;99.90
36654;DHT22;22650;49.350;20.898;2022-12-29T07:33:25;3.20;99.90
36654;DHT22;22650;49.350;20.898;2022-12-29T07:35:59;3.30;99.90
36654;DHT22;22650;49.350;20.898;2022-12-29T07:38:33;3.40;99.90
36654;DHT22;22650;49.350;20.898;2022-12-29T07:41:07;3.50;99.90
36654;DHT22;22650;49.350;20.898;2022-12-29T07:43:40;3.50;99.90
36654;DHT22;22650;49.350;20.898;2022-12-29T07:46:36;3.60;99.90
36654;DHT22;22650;49.350;20.898;2022-12-29T07:49:29;3.70;99.90
36654;DHT22;22650;49.350;20.898;2022-12-29T07:52:03;3.80;99.90
36654;DHT22;22650;49.350;20.898;2022-12-29T07:54:36;3.80;99.90
36654;DHT22;22650;49.350;20.898;2022-12-29T07:57:10;3.90;99.90
36654;DHT22;22650;49.350;20.898;2022-12-29T07:59:43;3.90;99.90
36654;DHT22;22650;49.350;20.898;2022-12-29T08:02:17;4.00;99.90
36654;DHT22;22650;49.350;20.898;2022-12-29T08:04:52;4.10;99.90
36654;DHT22;22650;49.350;20.898;2022-12-29T08:07:25;4.10;99.90
36654;DHT22;22650;49.350;20.898;2022-12-29T08:09:59;4.20;99.90
36654;DHT22;22650;49.350;20.898;2022-12-29T08:12:33;4.20;99.90
36654;DHT22;22650;49.350;20.898;2022-12-29T08:15:08;4.20;99.90
36654;DHT22;22650;49.350;20.898;2022-12-29T08:17:42;4.20;99.90
36654;DHT22;22650;49.350;20.898;2022-12-29T08:20:17;4.30;99.90
36654;DHT22;22650;49.350;20.898;2022-12-29T08:22:51;4.30;99.90
36654;DHT22;22650;49.350;20.898;2022-12-29T08:25:24;4.30;99.90
36654;DHT22;22650;49.350;20.898;2022-12-29T08:27:58;4.20;99.90
36654;DHT22;22650;49.350;20.898;2022-12-29T08:30:32;4.10;99.90
36654;DHT22;22650;49.350;20.898;2022-12-29T08:33:05;4.10;99.90
36654;DHT22;22650;49.350;20.898;2022-12-29T08:35:40;4.00;99.90
36654;DHT22;22650;49.350;20.898;2022-12-29T08:38:14;4.00;99.90
36654;DHT22;22650;49.350;20.898;2022-12-29T08:40:47;4.10;99.90
36654;DHT22;22650;49.350;20.898;2022-12-29T08:43:21;4.10;99.90
36654;DHT22;22650;49.350;20.898;2022-12-29T08:45:55;4.10;99.90
36654;DHT22;22650;49.350;20.898;2022-12-29T08:48:30;4.10;99.90
36654;DHT22;22650;49.350;20.898;2022-12-29T08:51:05;4.10;99.90
36654;DHT22;22650;49.350;20.898;2022-12-29T08:53:39;4.20;99.90
36654;DHT22;22650;49.350;20.898;2022-12-29T08:56:13;4.20;99.90
36654;DHT22;22650;49.350;20.898;2022-12-29T08:58:53;4.30;99.90
36654;DHT22;22650;49.350;20.898;2022-12-29T09:01:27;4.30;99.90
36654;DHT22;22650;49.350;20.898;2022-12-29T09:04:02;4.30;99.90
36654;DHT22;22650;49.350;20.898;2022-12-29T09:06:53;4.40;99.90
36654;DHT22;22650;49.350;20.898;2022-12-29T09:09:27;4.50;99.90
36654;DHT22;22650;49.350;20.898;2022-12-29T09:12:00;4.50;99.90
36654;DHT22;22650;49.350;20.898;2022-12-29T09:14:34;4.60;99.90
36654;DHT22;22650;49.350;20.898;2022-12-29T09:17:10;4.70;99.90
36654;DHT22;22650;49.350;20.898;2022-12-29T09:20:02;4.90;99.90
36654;DHT22;22650;49.350;20.898;2022-12-29T09:22:37;4.90;99.90
36654;DHT22;22650;49.350;20.898;2022-12-29T09:25:11;5.00;99.90
36654;DHT22;22650;49.350;20.898;2022-12-29T09:27:45;5.10;99.90
36654;DHT22;22650;49.350;20.898;2022-12-29T09:30:21;5.30;99.90
36654;DHT22;22650;49.350;20.898;2022-12-29T09:32:55;5.50;99.90
36654;DHT22;22650;49.350;20.898;2022-12-29T09:35:29;5.70;99.90
36654;DHT22;22650;49.350;20.898;2022-12-29T09:38:04;5.90;99.90
36654;DHT22;22650;49.350;20.898;2022-12-29T09:40:38;6.10;99.90
36654;DHT22;22650;49.350;20.898;2022-12-29T09:43:24;6.30;99.90
36654;DHT22;22650;49.350;20.898;2022-12-29T09:46:08;6.60;99.90
36654;DHT22;22650;49.350;20.898;2022-12-29T09:48:50;6.80;99.90
36654;DHT22;22650;49.350;20.898;2022-12-29T09:51:26;6.90;99.90
36654;DHT22;22650;49.350;20.898;2022-12-29T09:54:19;7.00;99.90
36654;DHT22;22650;49.350;20.898;2022-12-29T09:56:55;7.10;99.90
36654;DHT22;22650;49.350;20.898;2022-12-29T09:59:38;7.20;99.90
36654;DHT22;22650;49.350;20.898;2022-12-29T10:02:23;7.30;99.90
36654;DHT22;22650;49.350;20.898;2022-12-29T10:05:02;7.40;99.90
36654;DHT22;22650;49.350;20.898;2022-12-29T10:07:40;7.40;99.90
36654;DHT22;22650;49.350;20.898;2022-12-29T10:10:30;7.50;99.90
36654;DHT22;22650;49.350;20.898;2022-12-29T10:13:23;7.50;99.90
36654;DHT22;22650;49.350;20.898;2022-12-29T10:16:04;7.50;99.90
36654;DHT22;22650;49.350;20.898;2022-12-29T10:21:56;7.50;99.90
36654;DHT22;22650;49.350;20.898;2022-12-29T10:24:32;7.50;99.90
36654;DHT22;22650;49.350;20.898;2022-12-29T10:27:12;7.50;99.90
36654;DHT22;22650;49.350;20.898;2022-12-29T10:29:53;7.50;99.90
36654;DHT22;22650;49.350;20.898;2022-12-29T10:32:32;7.50;99.90
36654;DHT22;22650;49.350;20.898;2022-12-29T10:35:11;7.40;99.90
36654;DHT22;22650;49.350;20.898;2022-12-29T10:37:50;7.50;99.90
36654;DHT22;22650;49.350;20.898;2022-12-29T10:40:29;7.50;99.90
36654;DHT22;22650;49.350;20.898;2022-12-29T10:43:20;7.50;99.90
36654;DHT22;22650;49.350;20.898;2022-12-29T10:45:58;7.50;99.90
36654;DHT22;22650;49.350;20.898;2022-12-29T10:48:33;7.50;99.90
36654;DHT22;22650;49.350;20.898;2022-12-29T10:51:08;7.40;99.90
36654;DHT22;22650;49.350;20.898;2022-12-29T10:53:45;7.40;99.90
36654;DHT22;22650;49.350;20.898;2022-12-29T10:56:28;7.40;99.90
36654;DHT22;22650;49.350;20.898;2022-12-29T10:59:13;7.40;99.90
36654;DHT22;22650;49.350;20.898;2022-12-29T11:01:54;7.40;99.90
36654;DHT22;22650;49.350;20.898;2022-12-29T11:04:42;7.40;99.90
36654;DHT22;22650;49.350;20.898;2022-12-29T11:07:18;7.50;99.90
36654;DHT22;22650;49.350;20.898;2022-12-29T11:10:17;7.50;99.90
36654;DHT22;22650;49.350;20.898;2022-12-29T11:13:00;7.60;99.90
36654;DHT22;22650;49.350;20.898;2022-12-29T11:15:41;7.60;99.90
36654;DHT22;22650;49.350;20.898;2022-12-29T11:18:21;7.60;99.90
36654;DHT22;22650;49.350;20.898;2022-12-29T11:20:56;7.60;99.90
36654;DHT22;22650;49.350;20.898;2022-12-29T11:23:34;7.60;99.90
36654;DHT22;22650;49.350;20.898;2022-12-29T11:26:20;7.50;99.90
36654;DHT22;22650;49.350;20.898;2022-12-29T11:29:26;7.60;99.90
36654;DHT22;22650;49.350;20.898;2022-12-29T11:32:11;7.60;99.90
36654;DHT22;22650;49.350;20.898;2022-12-29T11:34:45;7.60;99.90
36654;DHT22;22650;49.350;20.898;2022-12-29T11:37:28;7.70;99.90
36654;DHT22;22650;49.350;20.898;2022-12-29T11:40:04;7.70;99.90
36654;DHT22;22650;49.350;20.898;2022-12-29T11:42:42;7.80;99.90
36654;DHT22;22650;49.350;20.898;2022-12-29T11:45:22;7.90;99.90
36654;DHT22;22650;49.350;20.898;2022-12-29T11:47:59;8.00;99.90
36654;DHT22;22650;49.350;20.898;2022-12-29T11:50:37;8.00;99.90
36654;DHT22;22650;49.350;20.898;2022-12-29T11:53:17;8.00;99.90
36654;DHT22;22650;49.350;20.898;2022-12-29T11:55:56;8.10;99.90
36654;DHT22;22650;49.350;20.898;2022-12-29T11:58:30;8.20;99.90
36654;DHT22;22650;49.350;20.898;2022-12-29T12:01:09;8.20;99.90
36654;DHT22;22650;49.350;20.898;2022-12-29T12:03:48;8.20;99.90
36654;DHT22;22650;49.350;20.898;2022-12-29T12:06:27;8.30;99.90
36654;DHT22;22650;49.350;20.898;2022-12-29T12:09:07;8.40;99.90
36654;DHT22;22650;49.350;20.898;2022-12-29T12:11:43;8.50;99.90
36654;DHT22;22650;49.350;20.898;2022-12-29T12:14:21;8.40;99.90
36654;DHT22;22650;49.350;20.898;2022-12-29T12:17:24;8.30;99.90
36654;DHT22;22650;49.350;20.898;2022-12-29T12:20:16;8.10;99.90
36654;DHT22;22650;49.350;20.898;2022-12-29T12:22:59;7.90;99.90
36654;DHT22;22650;49.350;20.898;2022-12-29T12:25:45;7.70;99.90
36654;DHT22;22650;49.350;20.898;2022-12-29T12:28:26;7.50;99.90
36654;DHT22;22650;49.350;20.898;2022-12-29T12:31:17;7.40;99.90
36654;DHT22;22650;49.350;20.898;2022-12-29T12:33:56;7.30;99.90
36654;DHT22;22650;49.350;20.898;2022-12-29T12:36:55;7.10;99.90
36654;DHT22;22650;49.350;20.898;2022-12-29T12:39:39;7.00;99.90
36654;DHT22;22650;49.350;20.898;2022-12-29T12:42:27;7.00;99.90
36654;DHT22;22650;49.350;20.898;2022-12-29T12:45:24;6.90;99.90
36654;DHT22;22650;49.350;20.898;2022-12-29T12:48:12;6.80;99.90
36654;DHT22;22650;49.350;20.898;2022-12-29T12:50:52;6.80;99.90
36654;DHT22;22650;49.350;20.898;2022-12-29T12:53:52;6.80;99.90
36654;DHT22;22650;49.350;20.898;2022-12-29T12:56:52;6.80;99.90
36654;DHT22;22650;49.350;20.898;2022-12-29T12:59:39;7.00;99.90
36654;DHT22;22650;49.350;20.898;2022-12-29T13:02:26;7.30;99.90
36654;DHT22;22650;49.350;20.898;2022-12-29T13:05:44;7.50;99.90
36654;DHT22;22650;49.350;20.898;2022-12-29T13:08:56;7.70;99.90
36654;DHT22;22650;49.350;20.898;2022-12-29T13:11:42;7.70;99.90
36654;DHT22;22650;49.350;20.898;2022-12-29T13:14:29;7.60;99.90
36654;DHT22;22650;49.350;20.898;2022-12-29T13:17:12;7.40;99.90
36654;DHT22;22650;49.350;20.898;2022-12-29T13:19:52;7.50;99.90
36654;DHT22;22650;49.350;20.898;2022-12-29T13:22:33;7.40;99.90
36654;DHT22;22650;49.350;20.898;2022-12-29T13:25:21;7.30;99.90
36654;DHT22;22650;49.350;20.898;2022-12-29T13:28:00;7.30;99.90
36654;DHT22;22650;49.350;20.898;2022-12-29T13:30:42;7.10;99.90
36654;DHT22;22650;49.350;20.898;2022-12-29T13:33:22;7.00;99.90
36654;DHT22;22650;49.350;20.898;2022-12-29T13:36:02;7.00;99.90
36654;DHT22;22650;49.350;20.898;2022-12-29T13:38:40;6.90;99.90
36654;DHT22;22650;49.350;20.898;2022-12-29T13:41:21;7.00;99.90
36654;DHT22;22650;49.350;20.898;2022-12-29T13:43:58;7.10;99.90
36654;DHT22;22650;49.350;20.898;2022-12-29T13:46:36;7.10;99.90
36654;DHT22;22650;49.350;20.898;2022-12-29T13:49:14;7.10;99.90
36654;DHT22;22650;49.350;20.898;2022-12-29T13:51:50;7.00;99.90
36654;DHT22;22650;49.350;20.898;2022-12-29T13:54:33;7.00;99.90
36654;DHT22;22650;49.350;20.898;2022-12-29T13:57:10;6.80;99.90
36654;DHT22;22650;49.350;20.898;2022-12-29T13:59:51;6.60;99.90
36654;DHT22;22650;49.350;20.898;2022-12-29T14:02:37;6.60;99.90
36654;DHT22;22650;49.350;20.898;2022-12-29T14:05:29;6.50;99.90
36654;DHT22;22650;49.350;20.898;2022-12-29T14:08:04;6.40;99.90
36654;DHT22;22650;49.350;20.898;2022-12-29T14:10:45;6.30;99.90
36654;DHT22;22650;49.350;20.898;2022-12-29T14:13:22;6.20;99.90
36654;DHT22;22650;49.350;20.898;2022-12-29T14:15:58;6.10;99.90
36654;DHT22;22650;49.350;20.898;2022-12-29T14:18:33;6.10;99.90
36654;DHT22;22650;49.350;20.898;2022-12-29T14:21:10;6.00;99.90
36654;DHT22;22650;49.350;20.898;2022-12-29T14:23:51;6.00;99.90
36654;DHT22;22650;49.350;20.898;2022-12-29T14:26:35;5.90;99.90
36654;DHT22;22650;49.350;20.898;2022-12-29T14:29:43;5.90;99.90
36654;DHT22;22650;49.350;20.898;2022-12-29T14:32:36;5.80;99.90
36654;DHT22;22650;49.350;20.898;2022-12-29T14:35:39;5.60;99.90
36654;DHT22;22650;49.350;20.898;2022-12-29T14:38:16;5.60;99.90
36654;DHT22;22650;49.350;20.898;2022-12-29T14:40:51;5.40;99.90
36654;DHT22;22650;49.350;20.898;2022-12-29T14:43:26;5.40;99.90
36654;DHT22;22650;49.350;20.898;2022-12-29T14:46:02;5.30;99.90
36654;DHT22;22650;49.350;20.898;2022-12-29T14:48:41;5.20;99.90
36654;DHT22;22650;49.350;20.898;2022-12-29T14:51:18;5.10;99.90
36654;DHT22;22650;49.350;20.898;2022-12-29T14:53:53;5.00;99.90
36654;DHT22;22650;49.350;20.898;2022-12-29T14:56:28;4.80;99.90
36654;DHT22;22650;49.350;20.898;2022-12-29T14:59:04;4.60;99.90
36654;DHT22;22650;49.350;20.898;2022-12-29T15:01:48;4.40;99.90
36654;DHT22;22650;49.350;20.898;2022-12-29T15:04:26;4.20;99.90
36654;DHT22;22650;49.350;20.898;2022-12-29T15:07:00;4.00;99.90
36654;DHT22;22650;49.350;20.898;2022-12-29T15:09:37;3.80;99.90
36654;DHT22;22650;49.350;20.898;2022-12-29T15:12:19;3.70;99.90
36654;DHT22;22650;49.350;20.898;2022-12-29T15:14:54;3.60;99.90
36654;DHT22;22650;49.350;20.898;2022-12-29T15:17:31;3.50;99.90
36654;DHT22;22650;49.350;20.898;2022-12-29T15:20:17;3.40;99.90
36654;DHT22;22650;49.350;20.898;2022-12-29T15:22:56;3.40;99.90
36654;DHT22;22650;49.350;20.898;2022-12-29T15:25:31;3.30;99.90
36654;DHT22;22650;49.350;20.898;2022-12-29T15:28:06;3.30;99.90
36654;DHT22;22650;49.350;20.898;2022-12-29T15:30:50;3.30;99.90
36654;DHT22;22650;49.350;20.898;2022-12-29T15:33:27;3.30;99.90
36654;DHT22;22650;49.350;20.898;2022-12-29T15:36:03;3.30;99.90
36654;DHT22;22650;49.350;20.898;2022-12-29T15:38:38;3.20;99.90
36654;DHT22;22650;49.350;20.898;2022-12-29T15:41:24;3.20;99.90
36654;DHT22;22650;49.350;20.898;2022-12-29T15:44:08;3.10;99.90
36654;DHT22;22650;49.350;20.898;2022-12-29T15:46:44;3.10;99.90
36654;DHT22;22650;49.350;20.898;2022-12-29T15:49:20;3.00;99.90
36654;DHT22;22650;49.350;20.898;2022-12-29T15:52:06;3.00;99.90
36654;DHT22;22650;49.350;20.898;2022-12-29T15:54:42;2.90;99.90
36654;DHT22;22650;49.350;20.898;2022-12-29T15:57:23;2.90;99.90
36654;DHT22;22650;49.350;20.898;2022-12-29T15:59:57;2.90;99.90
36654;DHT22;22650;49.350;20.898;2022-12-29T16:02:31;2.80;99.90
36654;DHT22;22650;49.350;20.898;2022-12-29T16:05:15;2.70;99.90
36654;DHT22;22650;49.350;20.898;2022-12-29T16:07:54;2.60;99.90
36654;DHT22;22650;49.350;20.898;2022-12-29T16:10:32;2.60;99.90
36654;DHT22;22650;49.350;20.898;2022-12-29T16:13:16;2.60;99.90
36654;DHT22;22650;49.350;20.898;2022-12-29T16:15:54;2.60;99.90
36654;DHT22;22650;49.350;20.898;2022-12-29T16:18:30;2.60;99.90
36654;DHT22;22650;49.350;20.898;2022-12-29T16:21:18;2.60;99.90
36654;DHT22;22650;49.350;20.898;2022-12-29T16:23:54;2.60;99.90
36654;DHT22;22650;49.350;20.898;2022-12-29T16:26:28;2.60;99.90
36654;DHT22;22650;49.350;20.898;2022-12-29T16:29:05;2.60;99.90
36654;DHT22;22650;49.350;20.898;2022-12-29T16:31:50;2.60;99.90
36654;DHT22;22650;49.350;20.898;2022-12-29T16:34:27;2.60;99.90
36654;DHT22;22650;49.350;20.898;2022-12-29T16:37:04;2.60;99.90
36654;DHT22;22650;49.350;20.898;2022-12-29T16:39:38;2.60;99.90
36654;DHT22;22650;49.350;20.898;2022-12-29T16:42:34;2.60;99.90
36654;DHT22;22650;49.350;20.898;2022-12-29T16:48:25;2.60;99.90
36654;DHT22;22650;49.350;20.898;2022-12-29T16:51:04;2.60;99.90
36654;DHT22;22650;49.350;20.898;2022-12-29T16:53:40;2.60;99.90
36654;DHT22;22650;49.350;20.898;2022-12-29T16:56:17;2.60;99.90